Crookston, MN

1:26 PM CDT on March 29, 2017 (GMT -0500)
Crookston Municipal-Kirkwood

Weather History for KCKN - November, 2012

Change the Weather History Date:

Monday, November 12, 2012

  Actual Average Record
Temperature  
Mean Temperature 16 °F -  
Max Temperature 21 °F 34 °F 57 °F (1999)
Min Temperature 12 °F 19 °F 1 °F (1996)
Degree Days  
Heating Degree Days 48    
Moisture  
Dew Point 14 °F    
Average Humidity 88    
Maximum Humidity 93    
Minimum Humidity 79    
Precipitation  
Precipitation 0.00 in - - ()
Sea Level Pressure  
Sea Level Pressure 30.02 in    
Wind  
Wind Speed 16 mph (WNW)    
Max Wind Speed 24 mph    
Max Gust Speed 26 mph    
Visibility 7 miles    
Events Snow    
Averages and records for this station are not official NWS values.
T = Trace of Precipitation, MM = Missing Value Source: NWS Daily Summary

Daily Weather History Graph

Daily Weather History Graph

Search for Another Location

Airport or City:

Trip Planner

Search our weather history database for the weather conditions in past years. The results will help you decide how hot, cold, wet, or windy it might be!

Date:

Astronomy

Nov. 12, 2012 Rise Set
Actual Time 7:28 AM CST 4:52 PM CST
Civil Twilight 6:55 AM CST 5:25 PM CST
Nautical Twilight 6:17 AM CST 6:03 PM CST
Astronomical Twilight 5:41 AM CST 6:39 PM CST
Moon 5:51 AM CST (11/12) 4:00 PM CST (11/12)
Length of Visible Light 10h 30m
Length of Day
9h 23m
Waning Crescent, 2% of the Moon is Illuminated
Nov 12
Waning Crescent
Nov 13
New
Nov 20
First Quarter
Nov 28
Full
Dec 6
Last Quarter

Hourly Weather History & Observations

Time (CST) Temp. Windchill Dew Point Humidity Pressure Visibility Wind Dir Wind Speed Gust Speed Precip Events Conditions
12:55 AM 17.6 °F 3.2 °F 14.0 °F 86% 29.81 in 10.0 mi WNW 15.0 mph - N/A Snow Light Snow
1:14 AM 17.6 °F 3.7 °F 14.0 °F 86% 29.81 in 10.0 mi WNW 13.8 mph - N/A   Overcast
1:55 AM 17.6 °F 2.7 °F 15.8 °F 93% 29.81 in 5.0 mi WNW 16.1 mph - N/A Snow Light Snow
2:14 AM 19.4 °F 6.6 °F 15.8 °F 86% 29.81 in 7.0 mi WNW 12.7 mph - N/A Snow Light Snow
2:35 AM 19.4 °F 6.6 °F 15.8 °F 86% 29.82 in 4.0 mi WNW 12.7 mph - N/A Snow Light Snow
3:14 AM 19.4 °F 4.5 °F 15.8 °F 86% 29.82 in 2.5 mi WNW 17.3 mph - N/A Snow Light Snow
3:35 AM 17.6 °F 1.7 °F 15.8 °F 93% 29.83 in 3.0 mi WNW 18.4 mph - N/A Snow Light Snow
3:55 AM 17.6 °F 2.2 °F 15.8 °F 93% 29.83 in 10.0 mi WNW 17.3 mph 24.2 mph N/A Snow Light Snow
4:14 AM 17.6 °F 0.9 °F 15.8 °F 93% 29.83 in 7.0 mi WNW 20.7 mph 26.5 mph N/A Snow Light Snow
4:35 AM 17.6 °F 0.1 °F 15.8 °F 93% 29.84 in 7.0 mi WNW 23.0 mph - N/A Snow Light Snow
4:55 AM 17.6 °F 1.7 °F 15.8 °F 93% 29.85 in 3.0 mi WNW 18.4 mph - N/A Snow Light Snow
5:14 AM 17.6 °F 2.2 °F 15.8 °F 93% 29.85 in 5.0 mi WNW 17.3 mph 26.5 mph N/A Snow Light Snow
5:35 AM 17.6 °F 0.9 °F 15.8 °F 93% 29.86 in 4.0 mi WNW 20.7 mph - N/A Snow Light Snow
6:14 AM 17.6 °F 0.5 °F 15.8 °F 93% 29.88 in 4.0 mi WNW 21.9 mph - N/A Snow Light Snow
6:54 AM 17.6 °F 1.7 °F 15.8 °F 93% 29.89 in 2.0 mi WNW 18.4 mph - N/A Snow Light Snow
7:14 AM 17.6 °F 1.3 °F 15.8 °F 93% 29.91 in 3.0 mi WNW 19.6 mph 25.3 mph N/A Snow Light Snow
7:35 AM 17.6 °F 2.2 °F 14.0 °F 86% 29.92 in 7.0 mi WNW 17.3 mph 23.0 mph N/A Snow Light Snow
7:54 AM 17.6 °F 0.5 °F 14.0 °F 86% 29.93 in 10.0 mi NW 21.9 mph - N/A   Overcast
8:14 AM 15.8 °F -2.7 °F 12.2 °F 86% 29.94 in 7.0 mi NW 24.2 mph - N/A Snow Light Snow
8:35 AM 15.8 °F -1.9 °F 12.2 °F 86% 29.95 in 7.0 mi NW 21.9 mph - N/A Snow Light Snow
8:54 AM 15.8 °F -1.1 °F 12.2 °F 86% 29.95 in 10.0 mi NW 19.6 mph - N/A   Overcast
9:15 AM 15.8 °F -1.1 °F 12.2 °F 86% 29.96 in 7.0 mi WNW 19.6 mph - N/A   Overcast
9:35 AM 15.8 °F -1.1 °F 12.2 °F 86% 29.97 in 4.0 mi WNW 19.6 mph 25.3 mph N/A   Overcast
9:54 AM 17.6 °F 1.3 °F 14.0 °F 86% 29.98 in 3.0 mi NW 19.6 mph - N/A   Overcast
10:15 AM 17.6 °F 1.3 °F 15.8 °F 93% 30.00 in 2.5 mi NW 19.6 mph - N/A   Overcast
10:35 AM 17.6 °F 0.1 °F 15.8 °F 93% 30.00 in 4.0 mi NW 23.0 mph - N/A   Overcast
10:54 AM 17.6 °F 0.5 °F 15.8 °F 93% 30.01 in 4.0 mi NW 21.9 mph - N/A   Overcast
11:15 AM 19.4 °F 3.2 °F 15.8 °F 86% 30.01 in 3.0 mi NW 20.7 mph 24.2 mph N/A   Overcast
11:35 AM 19.4 °F 2.8 °F 15.8 °F 86% 30.01 in 3.0 mi NW 21.9 mph - N/A   Overcast
11:54 AM 19.4 °F 3.6 °F 15.8 °F 86% 30.02 in 4.0 mi NW 19.6 mph - N/A   Overcast
12:34 PM 19.4 °F 5.0 °F 17.6 °F 93% 30.03 in 7.0 mi NW 16.1 mph - N/A   Overcast
12:54 PM 19.4 °F 3.6 °F 17.6 °F 93% 30.04 in 7.0 mi WNW 19.6 mph 24.2 mph N/A   Overcast
1:15 PM 21.2 °F 6.4 °F 17.6 °F 86% 30.04 in 7.0 mi NW 18.4 mph - N/A   Overcast
1:34 PM 21.2 °F 7.8 °F 17.6 °F 86% 30.04 in 10.0 mi NW 15.0 mph - N/A   Overcast
1:54 PM 21.2 °F 6.8 °F 17.6 °F 86% 30.05 in 4.0 mi NW 17.3 mph - N/A   Overcast
2:14 PM 21.2 °F 6.4 °F 17.6 °F 86% 30.05 in 4.0 mi NNW 18.4 mph - N/A   Overcast
2:34 PM 21.2 °F 6.4 °F 17.6 °F 86% 30.06 in 10.0 mi NW 18.4 mph - N/A   Overcast
2:55 PM 21.2 °F 7.8 °F 17.6 °F 86% 30.07 in 10.0 mi NW 15.0 mph - N/A   Overcast
3:14 PM 21.2 °F 7.3 °F 17.6 °F 86% 30.08 in 10.0 mi NW 16.1 mph 20.7 mph N/A   Overcast
3:35 PM 21.2 °F 7.3 °F 17.6 °F 86% 30.09 in 10.0 mi WNW 16.1 mph - N/A   Overcast
3:55 PM 21.2 °F 6.8 °F 19.4 °F 93% 30.10 in 7.0 mi NW 17.3 mph - N/A   Overcast
4:14 PM 21.2 °F 8.9 °F 19.4 °F 93% 30.12 in 5.0 mi WNW 12.7 mph - N/A   Overcast
4:35 PM 21.2 °F 8.9 °F 17.6 °F 86% 30.13 in 10.0 mi WNW 12.7 mph - N/A   Overcast
4:55 PM 21.2 °F 8.3 °F 17.6 °F 86% 30.13 in 10.0 mi WNW 13.8 mph - N/A   Overcast
5:14 PM 19.4 °F 7.9 °F 15.8 °F 86% 30.14 in 10.0 mi WNW 10.4 mph - N/A   Mostly Cloudy
5:35 PM 17.6 °F 6.4 °F 15.8 °F 93% 30.14 in 10.0 mi West 9.2 mph - N/A   Scattered Clouds
5:54 PM 17.6 °F 8.2 °F 14.0 °F 86% 30.15 in 10.0 mi West 6.9 mph - N/A   Clear
6:14 PM 17.6 °F 7.3 °F 12.2 °F 79% 30.16 in 10.0 mi West 8.1 mph - N/A   Clear
6:54 PM 15.8 °F 5.1 °F 12.2 °F 86% 30.17 in 10.0 mi West 8.1 mph - N/A   Clear
7:14 PM 15.8 °F 6.1 °F 10.4 °F 79% 30.16 in 10.0 mi SW 6.9 mph - N/A   Scattered Clouds
7:35 PM 12.2 °F 1.7 °F 10.4 °F 92% 30.17 in 10.0 mi SSW 6.9 mph - N/A   Scattered Clouds
7:53 PM 14.0 °F 3.9 °F 10.4 °F 86% 30.17 in 10.0 mi SSW 6.9 mph - N/A   Scattered Clouds
8:14 PM 12.2 °F 0.7 °F 10.4 °F 92% 30.17 in 10.0 mi SSW 8.1 mph - N/A   Scattered Clouds
8:35 PM 12.2 °F 1.7 °F 10.4 °F 92% 30.16 in 10.0 mi SSW 6.9 mph - N/A   Clear
8:54 PM 14.0 °F 5.1 °F 10.4 °F 86% 30.17 in 10.0 mi SSW 5.8 mph - N/A   Clear
9:15 PM 15.8 °F 4.2 °F 12.2 °F 86% 30.17 in 10.0 mi SSW 9.2 mph - N/A   Clear
9:35 PM 15.8 °F 4.2 °F 12.2 °F 86% 30.18 in 10.0 mi SSW 9.2 mph - N/A   Clear
9:54 PM 15.8 °F 5.1 °F 10.4 °F 79% 30.18 in 10.0 mi SSW 8.1 mph - N/A   Scattered Clouds
10:15 PM 14.0 °F 5.1 °F 10.4 °F 86% 30.18 in 10.0 mi SSW 5.8 mph - N/A   Scattered Clouds
10:35 PM 12.2 °F 2.9 °F 10.4 °F 92% 30.18 in 10.0 mi SSW 5.8 mph - N/A   Clear
10:54 PM 14.0 °F 2.9 °F 10.4 °F 86% 30.18 in 10.0 mi SSW 8.1 mph - N/A   Clear
11:15 PM 14.0 °F 2.9 °F 10.4 °F 86% 30.18 in 10.0 mi SSW 8.1 mph - N/A   Clear
11:34 PM 14.0 °F 2.0 °F 10.4 °F 86% 30.18 in 10.0 mi SSW 9.2 mph - N/A   Clear
11:54 PM 14.0 °F 2.9 °F 10.4 °F 86% 30.18 in 10.0 mi South 8.1 mph - N/A   Clear